EDT,Max TemperatureF,Mean TemperatureF,Min TemperatureF,Max Dew PointF,MeanDew PointF,Min DewpointF,Max Humidity, Mean Humidity, Min Humidity, Max Sea Level PressureIn, Mean Sea Level PressureIn, Min Sea Level PressureIn, Max VisibilityMiles, Mean VisibilityMiles, Min VisibilityMiles, Max Wind SpeedMPH, Mean Wind SpeedMPH, Max Gust SpeedMPH,PrecipitationIn, CloudCover, Events, WindDirDegrees
2012-10-1,67,59,51,52,51,46,100,83,56,29.88,29.70,29.60,15,12,2,17,12,22,0.04,7,Rain,278
2012-10-2,68,54,41,55,50,43,100,85,59,30.04,29.96,29.88,15,14,6,6,4,,0.00,5,Fog,185
2012-10-3,68,58,48,59,55,49,100,87,62,30.12,30.08,30.04,15,11,2,15,7,18,0.00,6,,59
2012-10-4,70,64,59,63,59,55,100,87,62,30.12,30.06,29.95,15,9,0,13,6,20,0.00,6,Fog-Rain,162
2012-10-5,71,61,51,61,52,41,100,78,37,29.96,29.89,29.82,15,12,4,18,8,24,0.02,5,Rain,205
2012-10-6,58,52,44,48,43,39,100,76,53,29.92,29.80,29.74,15,13,8,20,9,29,0.43,7,Rain,246
2012-10-7,48,42,35,39,33,28,87,69,41,30.09,30.03,29.93,15,15,15,12,8,,0.00,5,Rain,299
2012-10-8,55,41,27,36,31,28,99,69,26,30.25,30.19,30.09,15,15,10,12,4,18,0.00,3,Fog,168
2012-10-9,59,48,37,41,38,34,93,68,36,30.25,30.16,30.01,15,15,15,14,7,23,0.00,4,,165
2012-10-10,58,50,42,50,44,37,94,82,56,29.98,29.79,29.65,15,14,3,18,11,31,0.16,6,Rain,199
2012-10-11,51,42,34,41,35,26,93,76,27,30.07,29.96,29.82,15,14,10,18,11,30,0.04,5,Rain,238
2012-10-12,44,38,28,41,28,19,87,65,39,30.42,30.20,29.91,15,15,12,25,14,33,0.00,4,Snow,293
2012-10-13,51,37,23,37,27,19,93,69,25,30.42,30.33,30.14,15,14,8,14,6,22,0.39,5,Rain,197
2012-10-14,46,42,38,45,42,37,100,97,92,30.11,29.88,29.67,8,3,1,13,9,17,0.31,8,Rain,87
2012-10-15,63,53,43,57,47,36,100,78,51,29.66,29.55,29.46,15,12,2,25,11,36,0.00,7,Rain,199
2012-10-16,47,38,30,37,33,27,93,73,57,29.89,29.79,29.62,15,15,10,22,13,28,0.00,5,Rain,282
2012-10-17,54,40,26,45,37,27,100,82,62,29.97,29.92,29.88,15,15,15,9,4,,0.00,6,,111
2012-10-18,69,56,42,48,44,41,93,68,36,29.91,29.87,29.81,15,15,15,17,9,28,0.00,5,,123
2012-10-19,55,52,49,55,50,43,100,91,61,29.90,29.80,29.67,15,9,0,18,10,25,0.12,7,Fog-Rain,86
2012-10-20,60,52,44,55,50,41,100,88,48,29.68,29.62,29.59,15,7,0,17,9,25,0.03,6,Fog-Rain,163
2012-10-21,56,49,42,45,43,41,93,79,52,29.95,29.80,29.66,15,15,10,24,11,31,0.00,6,Rain,251
2012-10-22,56,48,41,45,43,41,93,79,56,30.08,30.02,29.96,15,15,15,16,9,20,0.00,4,,269
2012-10-23,54,46,37,41,40,37,100,80,55,30.19,30.15,30.09,15,15,15,10,5,,0.00,4,,354
2012-10-24,49,42,34,36,33,30,87,69,50,30.24,30.20,30.17,15,15,15,12,9,,0.00,5,,50
2012-10-25,60,52,45,45,39,32,81,63,49,30.19,30.14,30.06,15,15,15,13,9,,0.00,5,,77
2012-10-26,73,58,43,57,49,41,100,78,53,30.12,30.07,30.03,15,13,6,15,9,21,0.00,2,,140
2012-10-27,53,48,44,48,46,43,100,90,64,30.13,30.07,30.01,15,8,2,20,12,22,0.08,8,Rain,327
2012-10-28,43,42,40,41,40,39,100,94,91,30.12,30.06,29.99,15,10,2,16,13,18,0.02,8,Rain,336
2012-10-29,59,51,43,50,46,41,100,82,66,29.97,29.75,29.46,15,15,7,30,14,39,0.02,8,Rain,8
2012-10-30,68,62,56,55,52,48,82,69,55,29.48,29.42,29.38,15,15,15,33,24,46,0.02,6,Rain,76
2012-10-31,57,50,42,56,48,41,100,94,77,29.46,29.43,29.39,15,12,3,16,11,28,0.16,7,Rain,146